createdAt,value
2018-02-10T00:00:07.737Z,67.75
2018-02-10T00:00:41.421Z,73.35
2018-02-10T00:01:15.102Z,66.72
2018-02-10T00:01:48.785Z,72.20
2018-02-10T00:02:22.463Z,67.75
2018-02-10T00:02:56.910Z,71.20
2018-02-10T00:03:30.594Z,62.78
2018-02-10T00:04:04.281Z,73.12
2018-02-10T00:04:37.983Z,74.68
2018-02-10T00:05:11.662Z,71.35
2018-02-10T00:05:45.342Z,72.68
2018-02-10T00:06:19.005Z,71.72
2018-02-10T00:06:52.680Z,78.75
2018-02-10T00:07:27.138Z,69.22
2018-02-10T00:08:00.831Z,66.15
2018-02-10T00:08:34.509Z,77.22
2018-02-10T00:09:08.193Z,71.28
2018-02-10T00:09:41.894Z,79.37
2018-02-10T00:10:15.554Z,75.50
2018-02-10T00:10:49.995Z,67.37
2018-02-10T00:11:23.711Z,67.30
2018-02-10T00:11:57.402Z,69.57
2018-02-10T00:12:31.111Z,67.68
2018-02-10T00:13:04.782Z,80.30
2018-02-10T00:13:38.461Z,74.57
2018-02-10T00:14:12.515Z,73.28
2018-02-10T00:14:46.976Z,70.68
2018-02-10T00:15:20.663Z,74.25
2018-02-10T00:15:54.330Z,72.40
2018-02-10T00:16:27.998Z,76.87
2018-02-10T00:17:01.685Z,77.50
2018-02-10T00:17:36.121Z,74.97
2018-02-10T00:18:09.793Z,69.28
2018-02-10T00:18:43.462Z,74.47
2018-02-10T00:19:17.915Z,71.80
2018-02-10T00:19:51.627Z,74.93
2018-02-10T00:20:25.348Z,77.80
2018-02-10T00:20:58.998Z,80.03
2018-02-10T00:21:32.665Z,77.32
2018-02-10T00:22:06.471Z,87.40
2018-02-10T00:22:39.798Z,75.57
2018-02-10T00:23:14.237Z,73.78
2018-02-10T00:23:47.914Z,74.97
2018-02-10T00:24:22.360Z,75.75
2018-02-10T00:24:56.054Z,75.97
2018-02-10T00:25:29.720Z,76.97
2018-02-10T00:26:03.398Z,75.97
2018-02-10T00:26:37.074Z,80.78
2018-02-10T00:27:11.523Z,78.32
2018-02-10T00:27:45.186Z,82.30
2018-02-10T00:28:18.876Z,71.32
2018-02-10T00:28:52.550Z,77.75
2018-02-10T00:29:26.329Z,74.75
2018-02-10T00:30:00.801Z,74.62
2018-02-10T00:30:34.531Z,80.78
2018-02-10T00:31:08.351Z,80.07
2018-02-10T00:31:42.043Z,76.28
2018-02-10T00:32:15.726Z,71.57
2018-02-10T00:32:49.407Z,75.20
2018-02-10T00:33:23.851Z,84.97
2018-02-10T00:33:57.513Z,80.82
2018-02-10T00:34:31.212Z,78.10
2018-02-10T00:35:04.902Z,77.05
2018-02-10T00:35:38.596Z,70.90
2018-02-10T00:36:12.282Z,86.50
2018-02-10T00:36:45.784Z,71.78
2018-02-10T00:37:19.461Z,78.05
2018-02-10T00:37:53.131Z,81.53
2018-02-10T00:38:26.814Z,76.55
2018-02-10T00:39:01.258Z,82.70
2018-02-10T00:39:34.936Z,76.80
2018-02-10T00:40:08.625Z,84.55
2018-02-10T00:40:42.124Z,77.32
2018-02-10T00:41:15.833Z,74.93
2018-02-10T00:41:49.501Z,77.50
2018-02-10T00:42:23.176Z,77.12
2018-02-10T00:42:56.875Z,78.00
2018-02-10T00:43:30.551Z,76.75
2018-02-10T00:44:04.228Z,84.70
2018-02-10T00:44:38.666Z,82.97
2018-02-10T00:45:12.366Z,73.95
2018-02-10T00:45:46.051Z,73.40
2018-02-10T00:46:19.723Z,76.60
2018-02-10T00:46:53.412Z,85.62
2018-02-10T00:47:26.893Z,76.93
2018-02-10T00:48:00.576Z,83.03
2018-02-10T00:48:34.262Z,80.22
2018-02-10T00:49:08.712Z,77.10
2018-02-10T00:49:42.400Z,81.60
2018-02-10T00:50:16.089Z,80.40
2018-02-10T00:50:49.771Z,78.07
2018-02-10T00:51:23.445Z,76.40
2018-02-10T00:51:57.114Z,76.43
2018-02-10T00:52:31.580Z,79.20
2018-02-10T00:53:05.256Z,87.15
2018-02-10T00:53:38.951Z,78.03
2018-02-10T00:54:12.629Z,78.45
2018-02-10T00:54:46.315Z,84.10
2018-02-10T00:55:20.947Z,78.57
2018-02-10T00:55:54.618Z,76.35
2018-02-10T00:56:28.290Z,77.32
2018-02-10T00:57:01.973Z,82.30
2018-02-10T00:57:35.646Z,85.82
2018-02-10T00:58:10.086Z,87.85
2018-02-10T00:58:43.754Z,81.25
2018-02-10T00:59:17.446Z,87.03
2018-02-10T00:59:51.153Z,78.85
2018-02-10T01:00:24.850Z,81.72
2018-02-10T01:00:58.521Z,83.62
2018-02-10T01:01:32.201Z,83.35
2018-02-10T01:02:06.652Z,78.50
2018-02-10T01:02:40.341Z,85.18
2018-02-10T01:03:14.133Z,80.93
2018-02-10T01:03:47.807Z,81.12
2018-02-10T01:04:21.478Z,80.05
2018-02-10T01:04:55.162Z,75.43
2018-02-10T01:05:28.857Z,79.25
2018-02-10T01:06:02.565Z,84.55
2018-02-10T01:06:36.233Z,83.57
2018-02-10T01:07:09.909Z,74.70
2018-02-10T01:07:44.350Z,85.28
2018-02-10T01:08:18.016Z,81.35
2018-02-10T01:08:51.710Z,82.40
2018-02-10T01:09:25.401Z,84.95
2018-02-10T01:09:59.081Z,80.10
2018-02-10T01:10:33.536Z,83.55
2018-02-10T01:11:07.211Z,79.30
2018-02-10T01:11:40.930Z,80.70
2018-02-10T01:12:14.602Z,80.20
2018-02-10T01:12:48.282Z,85.60
2018-02-10T01:13:21.960Z,85.93
2018-02-10T01:13:55.642Z,91.25
2018-02-10T01:14:29.314Z,79.35
2018-02-10T01:15:02.994Z,87.88
2018-02-10T01:15:37.133Z,91.75
2018-02-10T01:16:10.897Z,87.28
2018-02-10T01:16:45.359Z,81.70
2018-02-10T01:17:19.031Z,84.20
2018-02-10T01:17:52.710Z,84.50
2018-02-10T01:18:26.403Z,87.78
2018-02-10T01:19:00.090Z,82.57
2018-02-10T01:19:33.777Z,93.10
2018-02-10T01:20:07.466Z,85.68
2018-02-10T01:20:41.172Z,81.15
2018-02-10T01:21:14.851Z,82.82
2018-02-10T01:21:48.516Z,82.32
2018-02-10T01:22:22.954Z,85.25
2018-02-10T01:22:56.645Z,93.07
2018-02-10T01:23:30.335Z,86.43
2018-02-10T01:24:04.026Z,88.82
2018-02-10T01:24:37.841Z,88.65
2018-02-10T01:25:11.521Z,90.18
2018-02-10T01:25:45.222Z,83.15
2018-02-10T01:26:18.911Z,86.82
2018-02-10T01:26:52.590Z,88.05
2018-02-10T01:27:26.269Z,89.37
2018-02-10T01:27:59.605Z,93.03
2018-02-10T01:28:34.053Z,97.30
2018-02-10T01:29:07.746Z,88.47
2018-02-10T01:29:41.421Z,95.12
2018-02-10T01:30:15.103Z,87.82
2018-02-10T01:30:48.801Z,96.68
2018-02-10T01:31:22.474Z,89.65
2018-02-10T01:31:56.159Z,82.50
2018-02-10T01:32:30.597Z,83.93
2018-02-10T01:33:04.285Z,86.03
2018-02-10T01:33:37.953Z,95.75
2018-02-10T01:34:11.633Z,94.53
2018-02-10T01:34:46.077Z,94.07
2018-02-10T01:35:19.745Z,95.75
2018-02-10T01:35:53.450Z,92.93
2018-02-10T01:36:27.123Z,87.07
2018-02-10T01:37:00.803Z,97.28
2018-02-10T01:37:34.489Z,88.80
2018-02-10T01:38:08.923Z,90.10
2018-02-10T01:38:42.596Z,89.62
2018-02-10T01:39:16.266Z,92.55
2018-02-10T01:39:50.718Z,89.60
2018-02-10T01:40:24.405Z,89.70
2018-02-10T01:40:58.124Z,94.35
2018-02-10T01:41:31.787Z,93.00
2018-02-10T01:42:05.480Z,93.15
2018-02-10T01:42:39.159Z,94.78
2018-02-10T01:43:12.836Z,93.80
2018-02-10T01:43:46.505Z,86.60
2018-02-10T01:44:20.949Z,90.22
2018-02-10T01:44:54.672Z,88.30
2018-02-10T01:45:28.388Z,91.50
2018-02-10T01:46:02.256Z,89.93
2018-02-10T01:46:35.929Z,93.75
2018-02-10T01:47:09.602Z,94.20
2018-02-10T01:47:43.294Z,104.87
2018-02-10T01:48:16.963Z,96.97
2018-02-10T01:48:50.645Z,89.45
2018-02-10T01:49:25.085Z,93.50
2018-02-10T01:50:09.960Z,90.65
2018-02-10T01:50:43.642Z,94.80
2018-02-10T01:51:17.353Z,98.07
2018-02-10T01:51:51.101Z,98.93
2018-02-10T01:52:24.772Z,96.97
2018-02-10T01:52:58.462Z,97.65
2018-02-10T01:53:32.135Z,96.87
2018-02-10T01:54:06.577Z,99.70
2018-02-10T01:54:40.253Z,97.75
2018-02-10T01:55:13.926Z,102.47
2018-02-10T01:55:48.384Z,99.32
2018-02-10T01:56:22.086Z,94.55
2018-02-10T01:56:55.763Z,99.00
2018-02-10T01:57:29.449Z,96.80
2018-02-10T01:58:03.121Z,95.43
2018-02-10T01:58:36.483Z,96.78
2018-02-10T01:59:10.931Z,98.87
2018-02-10T01:59:44.615Z,100.62
2018-02-10T02:00:17.975Z,100.47
2018-02-10T02:00:51.656Z,101.65
2018-02-10T02:01:25.639Z,109.30
2018-02-10T02:02:00.092Z,106.03
2018-02-10T02:02:33.765Z,109.40
2018-02-10T02:03:07.453Z,106.95
2018-02-10T02:03:41.139Z,107.40
2018-02-10T02:04:14.823Z,103.50
2018-02-10T02:04:48.498Z,113.15
2018-02-10T02:05:22.937Z,106.18
2018-02-10T02:05:56.616Z,104.95
2018-02-10T02:06:30.314Z,111.10
2018-02-10T02:07:03.684Z,111.78
2018-02-10T02:07:37.361Z,110.00
2018-02-10T02:08:11.793Z,107.93
2018-02-10T02:08:45.458Z,110.90
2018-02-10T02:09:19.134Z,109.90
2018-02-10T02:09:53.577Z,105.30
2018-02-10T02:10:27.259Z,106.63
2018-02-10T02:11:00.946Z,108.07
2018-02-10T02:11:34.918Z,115.90
2018-02-10T02:12:09.362Z,110.63
2018-02-10T02:12:43.041Z,111.05
2018-02-10T02:13:16.703Z,109.53
2018-02-10T02:13:51.159Z,105.90
2018-02-10T02:14:24.850Z,106.00
2018-02-10T02:14:58.538Z,101.87
2018-02-10T02:15:32.213Z,111.72
2018-02-10T02:16:05.883Z,118.25
2018-02-10T02:16:40.361Z,108.65
2018-02-10T02:17:14.051Z,113.28
2018-02-10T02:17:47.722Z,115.55
2018-02-10T02:18:21.409Z,110.65
2018-02-10T02:18:55.084Z,115.00
2018-02-10T02:19:28.774Z,110.75
2018-02-10T02:20:02.127Z,105.10
2018-02-10T02:20:35.798Z,112.93
2018-02-10T02:21:09.467Z,111.20
2018-02-10T02:21:43.179Z,111.62
2018-02-10T02:22:17.620Z,105.20
2018-02-10T02:22:51.305Z,116.07
2018-02-10T02:23:24.987Z,116.47
2018-02-10T02:23:58.663Z,117.55
2018-02-10T02:24:33.132Z,121.90
2018-02-10T02:25:07.003Z,118.47
2018-02-10T02:25:40.688Z,111.70
2018-02-10T02:26:14.381Z,114.30
2018-02-10T02:26:48.004Z,110.40
2018-02-10T02:27:21.683Z,116.72
2018-02-10T02:27:55.363Z,110.72
2018-02-10T02:28:29.055Z,120.70
2018-02-10T02:29:02.747Z,120.47
2018-02-10T02:29:36.424Z,120.35
2018-02-10T02:30:10.098Z,118.65
2018-02-10T02:30:43.794Z,117.22
2018-02-10T02:31:17.483Z,120.05
2018-02-10T02:31:51.190Z,116.32
2018-02-10T02:32:24.887Z,117.22
2018-02-10T02:32:58.573Z,122.28
2018-02-10T02:33:32.250Z,115.07
2018-02-10T02:34:05.932Z,115.10
2018-02-10T02:34:39.632Z,121.93
2018-02-10T02:35:13.300Z,118.32
2018-02-10T02:35:46.985Z,118.20
2018-02-10T02:36:20.676Z,118.30
2018-02-10T02:36:54.370Z,119.13
2018-02-10T02:37:28.058Z,113.20
2018-02-10T02:38:01.754Z,124.72
2018-02-10T02:38:35.441Z,125.60
2018-02-10T02:39:09.143Z,120.15
2018-02-10T02:39:42.839Z,126.18
2018-02-10T02:40:16.193Z,132.70
2018-02-10T02:40:49.866Z,114.68
2018-02-10T02:41:24.318Z,116.85
2018-02-10T02:41:58.023Z,124.65
2018-02-10T02:42:31.706Z,126.25
2018-02-10T02:43:05.416Z,127.03
2018-02-10T02:43:39.112Z,118.78
2018-02-10T02:44:12.781Z,122.35
2018-02-10T02:44:46.463Z,131.15
2018-02-10T02:45:20.141Z,128.55
2018-02-10T02:45:53.821Z,130.63
2018-02-10T02:46:27.510Z,126.45
2018-02-10T02:47:01.217Z,132.60
2018-02-10T02:47:34.887Z,134.45
2018-02-10T02:48:08.582Z,129.80
2018-02-10T02:48:42.270Z,131.30
2018-02-10T02:49:15.951Z,131.05
2018-02-10T02:49:49.687Z,124.62
2018-02-10T02:50:23.384Z,131.00
2018-02-10T02:50:57.058Z,131.95
2018-02-10T02:51:30.744Z,131.68
2018-02-10T02:52:04.444Z,123.95
2018-02-10T02:52:39.633Z,140.68
2018-02-10T02:53:13.313Z,127.93
2018-02-10T02:53:46.983Z,131.95
2018-02-10T02:54:21.416Z,124.47
2018-02-10T02:54:55.107Z,135.88
2018-02-10T02:55:28.790Z,125.12
2018-02-10T02:56:02.461Z,133.52
2018-02-10T02:56:36.140Z,131.23
2018-02-10T02:57:10.966Z,123.75
2018-02-10T02:57:45.410Z,136.20
2018-02-10T02:58:19.090Z,128.43
2018-02-10T02:58:52.774Z,136.88
2018-02-10T02:59:26.467Z,131.40
2018-02-10T03:00:00.149Z,132.60
2018-02-10T03:00:33.833Z,119.07
2018-02-10T03:01:08.285Z,134.70
2018-02-10T03:01:41.974Z,137.57
2018-02-10T03:02:15.666Z,134.48
2018-02-10T03:02:49.345Z,132.45
2018-02-10T03:03:23.009Z,136.32
2018-02-10T03:03:56.701Z,127.53
2018-02-10T03:04:30.387Z,123.50
2018-02-10T03:05:03.745Z,139.95
2018-02-10T03:05:38.198Z,137.52
2018-02-10T03:06:11.865Z,130.45
2018-02-10T03:06:45.553Z,140.18
2018-02-10T03:07:19.246Z,129.73
2018-02-10T03:07:52.937Z,147.70
2018-02-10T03:08:26.619Z,134.57
2018-02-10T03:09:00.313Z,138.85
2018-02-10T03:09:34.006Z,147.35
2018-02-10T03:10:07.689Z,140.48
2018-02-10T03:10:41.362Z,135.45
2018-02-10T03:11:15.789Z,140.32
2018-02-10T03:11:49.482Z,137.65
2018-02-10T03:12:22.521Z,140.90
2018-02-10T03:12:56.201Z,146.07
2018-02-10T03:13:29.866Z,152.32
2018-02-10T03:14:03.541Z,150.15
2018-02-10T03:14:37.229Z,140.37
2018-02-10T03:15:10.901Z,147.50
2018-02-10T03:15:44.585Z,144.70
2018-02-10T03:16:18.260Z,144.98
2018-02-10T03:16:52.712Z,139.57
2018-02-10T03:17:26.414Z,145.98
2018-02-10T03:18:00.104Z,143.87
2018-02-10T03:18:33.797Z,142.60
2018-02-10T03:19:07.476Z,142.55
2018-02-10T03:19:41.155Z,152.30
2018-02-10T03:20:14.839Z,137.43
2018-02-10T03:20:48.510Z,150.95
2018-02-10T03:21:22.202Z,148.75
2018-02-10T03:21:55.894Z,142.15
2018-02-10T03:22:29.605Z,141.23
2018-02-10T03:23:03.282Z,144.75
2018-02-10T03:23:36.957Z,146.70
2018-02-10T03:24:11.402Z,154.50
2018-02-10T03:24:45.084Z,148.70
2018-02-10T03:25:18.747Z,148.07
2018-02-10T03:25:52.438Z,155.65
2018-02-10T03:26:26.877Z,157.55
2018-02-10T03:27:00.563Z,144.70
2018-02-10T03:27:34.266Z,160.95
2018-02-10T03:28:07.972Z,153.87
2018-02-10T03:28:41.652Z,156.02
2018-02-10T03:29:15.327Z,143.55
2018-02-10T03:29:49.007Z,159.20
2018-02-10T03:30:22.697Z,149.62
2018-02-10T03:30:56.407Z,144.45
2018-02-10T03:31:30.086Z,143.00
2018-02-10T03:32:03.778Z,142.65
2018-02-10T03:32:37.466Z,151.95
2018-02-10T03:33:11.129Z,148.27
2018-02-10T03:33:44.798Z,148.27
2018-02-10T03:34:19.246Z,152.48
2018-02-10T03:34:52.940Z,144.30
2018-02-10T03:35:26.280Z,158.35
2018-02-10T03:36:00.726Z,152.60
2018-02-10T03:36:34.409Z,156.90
2018-02-10T03:37:08.104Z,151.43
2018-02-10T03:37:41.805Z,147.37
2018-02-10T03:38:15.486Z,145.93
2018-02-10T03:38:49.163Z,151.32
2018-02-10T03:39:22.839Z,153.32
2018-02-10T03:39:56.518Z,166.73
2018-02-10T03:40:30.958Z,150.30
2018-02-10T03:41:04.638Z,150.75
2018-02-10T03:41:38.333Z,161.52
2018-02-10T03:42:11.343Z,155.93
2018-02-10T03:42:44.382Z,161.00
2018-02-10T03:43:17.737Z,153.75
2018-02-10T03:43:51.531Z,151.77
2018-02-10T03:44:25.312Z,161.00
2018-02-10T03:44:59.752Z,153.70
2018-02-10T03:45:33.422Z,160.70
2018-02-10T03:46:07.863Z,159.00
2018-02-10T03:46:41.551Z,157.25
2018-02-10T03:47:15.238Z,161.00
2018-02-10T03:47:49.317Z,146.73
2018-02-10T03:48:22.997Z,157.98
2018-02-10T03:48:57.434Z,161.73
2018-02-10T03:49:31.114Z,161.62
2018-02-10T03:50:04.794Z,165.52
2018-02-10T03:50:39.229Z,155.48
2018-02-10T03:51:12.918Z,159.25
2018-02-10T03:51:46.601Z,160.55
2018-02-10T03:52:20.280Z,159.15
2018-02-10T03:52:54.250Z,161.43
2018-02-10T03:53:28.705Z,155.55
2018-02-10T03:54:02.384Z,174.05
2018-02-10T03:54:36.081Z,159.55
2018-02-10T03:55:09.763Z,160.18
2018-02-10T03:55:43.445Z,164.43
2018-02-10T03:56:17.130Z,156.60
2018-02-10T03:56:50.806Z,154.68
2018-02-10T03:57:25.247Z,168.05
2018-02-10T03:57:59.205Z,162.75
2018-02-10T03:58:33.652Z,164.93
2018-02-10T03:59:07.330Z,166.70
2018-02-10T03:59:41.019Z,162.25
2018-02-10T04:00:14.699Z,160.90
2018-02-10T04:00:48.373Z,158.65
2018-02-10T04:01:22.810Z,168.62
2018-02-10T04:01:56.485Z,181.18
2018-02-10T04:02:30.163Z,163.87
2018-02-10T04:03:04.978Z,173.15
2018-02-10T04:03:39.422Z,171.00
2018-02-10T04:04:13.110Z,171.45
2018-02-10T04:04:46.802Z,172.07
2018-02-10T04:05:20.489Z,167.60
2018-02-10T04:05:54.166Z,169.32
2018-02-10T04:06:27.850Z,159.77
2018-02-10T04:07:01.181Z,170.87
2018-02-10T04:07:34.859Z,166.30
2018-02-10T04:08:08.543Z,167.95
2018-02-10T04:08:42.229Z,160.45
2018-02-10T04:09:15.906Z,164.30
2018-02-10T04:09:49.586Z,162.90
2018-02-10T04:10:23.263Z,170.27
2018-02-10T04:10:56.937Z,174.02
2018-02-10T04:11:31.379Z,161.02
2018-02-10T04:12:04.727Z,172.70
2018-02-10T04:12:39.169Z,163.18
2018-02-10T04:13:12.862Z,162.93
2018-02-10T04:13:46.545Z,163.73
2018-02-10T04:14:20.219Z,172.40
2018-02-10T04:14:53.889Z,170.60
2018-02-10T04:15:28.332Z,180.40
2018-02-10T04:16:02.009Z,171.27
2018-02-10T04:16:35.683Z,166.45
2018-02-10T04:17:10.134Z,165.10
2018-02-10T04:17:43.805Z,168.13
2018-02-10T04:18:17.496Z,166.85
2018-02-10T04:18:51.177Z,176.48
2018-02-10T04:19:24.862Z,172.62
2018-02-10T04:19:58.537Z,157.02
2018-02-10T04:20:32.984Z,168.27
2018-02-10T04:21:06.669Z,164.20
2018-02-10T04:21:40.338Z,165.37
2018-02-10T04:22:14.007Z,166.45
2018-02-10T04:22:48.456Z,174.00
2018-02-10T04:23:22.156Z,178.68
2018-02-10T04:23:55.830Z,164.75
2018-02-10T04:24:29.523Z,164.02
2018-02-10T04:25:03.214Z,162.50
2018-02-10T04:25:36.886Z,169.75
2018-02-10T04:26:10.554Z,180.98
2018-02-10T04:26:44.211Z,165.68
2018-02-10T04:27:17.887Z,171.37
2018-02-10T04:27:51.572Z,160.00
2018-02-10T04:28:25.281Z,172.02
2018-02-10T04:28:58.958Z,189.27
2018-02-10T04:29:32.642Z,157.73
2018-02-10T04:30:06.317Z,166.12
2018-02-10T04:30:39.985Z,179.75
2018-02-10T04:31:13.653Z,167.55
2018-02-10T04:31:48.107Z,158.27
2018-02-10T04:32:21.784Z,170.02
2018-02-10T04:32:56.440Z,180.52
2018-02-10T04:33:30.134Z,169.80
2018-02-10T04:34:03.826Z,172.98
2018-02-10T04:34:38.283Z,173.65
2018-02-10T04:35:11.959Z,169.70
2018-02-10T04:35:45.638Z,174.60
2018-02-10T04:36:20.093Z,171.62
2018-02-10T04:36:53.771Z,180.02
2018-02-10T04:37:27.454Z,177.73
2018-02-10T04:38:01.114Z,170.87
2018-02-10T04:38:35.631Z,183.85
2018-02-10T04:39:10.076Z,172.18
2018-02-10T04:39:43.766Z,178.02
2018-02-10T04:40:17.441Z,185.98
2018-02-10T04:40:51.130Z,174.50
2018-02-10T04:41:24.811Z,187.80
2018-02-10T04:41:58.487Z,166.25
2018-02-10T04:42:32.170Z,167.48
2018-02-10T04:43:06.621Z,170.07
2018-02-10T04:43:40.568Z,188.85
2018-02-10T04:44:14.229Z,172.18
2018-02-10T04:44:47.916Z,173.80
2018-02-10T04:45:21.609Z,171.98
2018-02-10T04:45:55.287Z,164.90
2018-02-10T04:46:28.990Z,175.32
2018-02-10T04:47:02.668Z,172.32
2018-02-10T04:47:36.345Z,175.50
2018-02-10T04:48:10.009Z,170.40
2018-02-10T04:48:43.701Z,170.05
2018-02-10T04:49:17.380Z,176.02
2018-02-10T04:49:51.054Z,176.70
2018-02-10T04:50:25.489Z,177.85
2018-02-10T04:50:59.182Z,178.87
2018-02-10T04:51:32.866Z,166.93
2018-02-10T04:52:06.547Z,182.75
2018-02-10T04:52:40.993Z,164.80
2018-02-10T04:53:14.676Z,171.77
2018-02-10T04:53:48.380Z,168.25
2018-02-10T04:54:22.067Z,171.18
2018-02-10T04:54:55.749Z,170.77
2018-02-10T04:55:29.422Z,166.98
2018-02-10T04:56:03.102Z,171.40
2018-02-10T04:56:36.780Z,180.70
2018-02-10T04:57:11.223Z,168.68
2018-02-10T04:57:44.886Z,177.90
2018-02-10T04:58:18.566Z,164.45
2018-02-10T04:58:53.028Z,181.15
2018-02-10T04:59:26.694Z,173.27
2018-02-10T05:00:00.362Z,177.75
2018-02-10T05:00:34.040Z,178.27
2018-02-10T05:01:08.489Z,170.35
2018-02-10T05:01:42.174Z,176.05
2018-02-10T05:02:15.841Z,170.85
2018-02-10T05:02:49.535Z,172.15
2018-02-10T05:03:23.207Z,171.30
2018-02-10T05:03:57.723Z,175.10
2018-02-10T05:04:31.422Z,171.43
2018-02-10T05:05:05.097Z,167.32
2018-02-10T05:05:39.559Z,182.18
2018-02-10T05:06:13.234Z,169.68
2018-02-10T05:06:46.904Z,163.30
2018-02-10T05:07:20.589Z,166.18
2018-02-10T05:07:54.273Z,166.25
2018-02-10T05:08:27.966Z,172.35
2018-02-10T05:09:01.654Z,166.30
2018-02-10T05:09:35.331Z,167.82
2018-02-10T05:10:09.022Z,165.35
2018-02-10T05:10:42.711Z,166.02
2018-02-10T05:11:17.157Z,182.55
2018-02-10T05:11:50.838Z,168.95
2018-02-10T05:12:24.513Z,166.68
2018-02-10T05:12:58.185Z,176.23
2018-02-10T05:13:31.855Z,174.40
2018-02-10T05:14:05.572Z,174.18
2018-02-10T05:14:40.023Z,168.73
2018-02-10T05:15:13.708Z,181.50
2018-02-10T05:15:47.385Z,171.18
2018-02-10T05:16:21.054Z,174.27
2018-02-10T05:16:54.730Z,178.57
2018-02-10T05:17:29.192Z,179.68
2018-02-10T05:18:02.882Z,175.40
2018-02-10T05:18:36.575Z,174.07
2018-02-10T05:19:10.304Z,181.65
2018-02-10T05:19:44.751Z,178.32
2018-02-10T05:20:18.422Z,174.35
2018-02-10T05:20:52.128Z,177.60
2018-02-10T05:21:25.791Z,164.15
2018-02-10T05:22:00.238Z,182.48
2018-02-10T05:22:33.927Z,176.85
2018-02-10T05:23:07.607Z,175.87
2018-02-10T05:23:41.317Z,174.05
2018-02-10T05:24:15.026Z,168.90
2018-02-10T05:24:49.491Z,177.60
2018-02-10T05:25:23.166Z,174.35
2018-02-10T05:25:56.851Z,182.45
2018-02-10T05:26:30.541Z,178.50
2018-02-10T05:27:04.227Z,180.48
2018-02-10T05:27:37.914Z,170.30
2018-02-10T05:28:12.363Z,172.77
2018-02-10T05:28:46.046Z,175.20
2018-02-10T05:29:20.098Z,174.45
2018-02-10T05:29:54.542Z,184.20
2018-02-10T05:30:28.251Z,172.70
2018-02-10T05:31:01.944Z,177.40
2018-02-10T05:31:35.634Z,168.70
2018-02-10T05:32:09.319Z,172.98
2018-02-10T05:32:43.011Z,176.30
2018-02-10T05:33:16.698Z,171.52
2018-02-10T05:33:50.387Z,184.63
2018-02-10T05:34:24.089Z,194.68
2018-02-10T05:34:57.769Z,181.87
2018-02-10T05:35:31.445Z,177.85
2018-02-10T05:36:05.109Z,191.65
2018-02-10T05:36:39.554Z,187.10
2018-02-10T05:37:13.264Z,173.93
2018-02-10T05:37:47.097Z,178.27
2018-02-10T05:38:21.531Z,184.00
2018-02-10T05:38:55.207Z,184.35
2018-02-10T05:39:29.324Z,186.95
2018-02-10T05:40:03.005Z,177.70
2018-02-10T05:40:36.674Z,187.45
2018-02-10T05:41:10.362Z,176.07
2018-02-10T05:41:44.799Z,176.23
2018-02-10T05:42:18.488Z,177.57
2018-02-10T05:42:52.155Z,178.60
2018-02-10T05:43:26.586Z,184.30
2018-02-10T05:44:00.267Z,187.20
2018-02-10T05:44:33.958Z,182.93
2018-02-10T05:45:07.636Z,181.52
2018-02-10T05:45:41.323Z,188.82
2018-02-10T05:46:15.006Z,179.90
2018-02-10T05:46:49.452Z,181.45
2018-02-10T05:47:23.148Z,179.63
2018-02-10T05:47:56.831Z,183.73
2018-02-10T05:48:30.518Z,178.32
2018-02-10T05:49:04.197Z,184.55
2018-02-10T05:49:37.916Z,194.10
2018-02-10T05:50:11.766Z,193.73
2018-02-10T05:50:45.438Z,187.02
2018-02-10T05:51:19.899Z,174.82
2018-02-10T05:51:53.639Z,178.00
2018-02-10T05:52:27.459Z,187.12
2018-02-10T05:53:01.132Z,179.02
2018-02-10T05:53:34.819Z,176.63
2018-02-10T05:54:08.514Z,166.95
2018-02-10T05:54:42.222Z,173.23
2018-02-10T05:55:15.912Z,184.70
2018-02-10T05:55:49.597Z,173.38
2018-02-10T05:56:23.264Z,183.25
2018-02-10T05:56:57.707Z,185.25
2018-02-10T05:57:31.392Z,189.80
2018-02-10T05:58:05.111Z,194.98
2018-02-10T05:58:38.789Z,194.65
2018-02-10T05:59:12.474Z,190.12
2018-02-10T05:59:46.165Z,180.10
2018-02-10T06:00:19.873Z,180.80
2018-02-10T06:00:53.541Z,182.70
2018-02-10T06:01:27.226Z,171.68
2018-02-10T06:02:00.906Z,181.20
2018-02-10T06:02:34.591Z,185.37
2018-02-10T06:03:08.264Z,177.02
2018-02-10T06:03:41.953Z,180.18
2018-02-10T06:04:16.397Z,192.45
2018-02-10T06:04:50.089Z,181.77
2018-02-10T06:05:23.780Z,185.32
2018-02-10T06:05:57.447Z,181.68
2018-02-10T06:06:31.138Z,190.52
2018-02-10T06:07:04.810Z,186.93
2018-02-10T06:07:39.255Z,193.50
2018-02-10T06:08:12.959Z,189.07
2018-02-10T06:08:46.633Z,188.45
2018-02-10T06:09:20.318Z,169.10
2018-02-10T06:09:54.024Z,170.48
2018-02-10T06:10:27.697Z,198.15
2018-02-10T06:11:01.378Z,177.02
2018-02-10T06:11:35.057Z,203.98
2018-02-10T06:12:08.727Z,187.10
2018-02-10T06:12:43.172Z,180.20
2018-02-10T06:13:16.850Z,199.75
2018-02-10T06:13:50.547Z,185.88
2018-02-10T06:14:24.227Z,193.43
2018-02-10T06:14:57.918Z,196.05
2018-02-10T06:15:31.591Z,187.55
2018-02-10T06:16:06.039Z,189.32
2018-02-10T06:16:39.722Z,184.00
2018-02-10T06:17:13.406Z,180.87
2018-02-10T06:17:47.084Z,190.75
2018-02-10T06:18:20.768Z,186.32
2018-02-10T06:18:54.436Z,170.85
2018-02-10T06:19:28.878Z,185.25
2018-02-10T06:20:02.566Z,180.07
2018-02-10T06:20:36.230Z,186.23
2018-02-10T06:21:10.683Z,190.60
2018-02-10T06:21:44.358Z,186.32
2018-02-10T06:22:18.035Z,181.95
2018-02-10T06:22:51.721Z,180.02
2018-02-10T06:23:25.389Z,187.30
2018-02-10T06:23:59.829Z,189.80
2018-02-10T06:24:33.505Z,195.65
2018-02-10T06:25:07.207Z,193.70
2018-02-10T06:25:40.884Z,194.95
2018-02-10T06:26:14.588Z,192.85
2018-02-10T06:26:48.265Z,188.73
2018-02-10T06:27:21.941Z,197.93
2018-02-10T06:27:56.402Z,206.05
2018-02-10T06:28:30.262Z,184.15
2018-02-10T06:29:03.935Z,190.73
2018-02-10T06:29:38.375Z,179.23
2018-02-10T06:30:12.081Z,190.45
2018-02-10T06:30:45.754Z,198.25
2018-02-10T06:31:19.431Z,187.00
2018-02-10T06:31:53.101Z,207.10
2018-02-10T06:32:27.538Z,188.55
2018-02-10T06:33:01.197Z,187.20
2018-02-10T06:33:35.640Z,186.25
2018-02-10T06:34:08.991Z,194.73
2018-02-10T06:34:42.714Z,199.15
2018-02-10T06:35:16.412Z,200.30
2018-02-10T06:35:50.094Z,199.82
2018-02-10T06:36:23.769Z,203.15
2018-02-10T06:36:57.446Z,179.00
2018-02-10T06:37:31.138Z,193.35
2018-02-10T06:38:04.824Z,198.32
2018-02-10T06:38:38.506Z,186.07
2018-02-10T06:39:12.940Z,191.95
2018-02-10T06:39:46.638Z,191.93
2018-02-10T06:40:20.347Z,197.70
2018-02-10T06:40:54.019Z,199.15
2018-02-10T06:41:27.710Z,193.25
2018-02-10T06:42:01.399Z,190.57
2018-02-10T06:42:35.087Z,196.77
2018-02-10T06:43:08.766Z,200.48
2018-02-10T06:43:42.437Z,199.10
2018-02-10T06:44:16.246Z,204.27
2018-02-10T06:44:49.924Z,200.77
2018-02-10T06:45:23.626Z,189.87
2018-02-10T06:45:57.310Z,201.15
2018-02-10T06:46:30.991Z,195.32
2018-02-10T06:47:04.679Z,199.30
2018-02-10T06:47:38.362Z,198.40
2018-02-10T06:48:12.037Z,199.68
2018-02-10T06:48:45.760Z,184.25
2018-02-10T06:49:19.444Z,196.10
2018-02-10T06:49:53.137Z,194.30
2018-02-10T06:50:26.839Z,189.18
2018-02-10T06:51:00.517Z,195.95
2018-02-10T06:51:34.201Z,193.00
2018-02-10T06:52:07.879Z,197.50
2018-02-10T06:52:42.543Z,197.48
2018-02-10T06:53:16.212Z,205.55
2018-02-10T06:53:49.918Z,200.82
2018-02-10T06:54:23.588Z,212.50
2018-02-10T06:54:57.266Z,207.45
2018-02-10T06:55:30.993Z,202.62
2018-02-10T06:56:04.680Z,186.80
2018-02-10T06:56:38.386Z,196.10
2018-02-10T06:57:12.074Z,195.80
2018-02-10T06:57:45.753Z,212.85
2018-02-10T06:58:19.443Z,197.37
2018-02-10T06:58:53.290Z,217.05
2018-02-10T06:59:26.980Z,203.95
2018-02-10T07:00:01.430Z,205.23
2018-02-10T07:00:35.473Z,197.45
2018-02-10T07:01:09.921Z,188.82
2018-02-10T07:01:43.607Z,210.32
2018-02-10T07:02:17.274Z,206.43
2018-02-10T07:02:51.014Z,200.50
2018-02-10T07:03:24.694Z,202.05
2018-02-10T07:03:58.366Z,201.15
2018-02-10T07:04:32.051Z,205.40
2018-02-10T07:05:05.739Z,198.35
2018-02-10T07:05:39.476Z,204.77